createdAt,value
2018-09-02T00:01:21.749Z,102019.00
2018-09-02T00:03:50.599Z,102017.00
2018-09-02T00:06:19.400Z,102017.00
2018-09-02T00:08:48.284Z,102016.00
2018-09-02T00:11:17.135Z,102019.00
2018-09-02T00:13:45.951Z,102032.00
2018-09-02T00:16:14.832Z,102023.00
2018-09-02T00:18:43.718Z,102025.00
2018-09-02T00:21:12.580Z,102030.00
2018-09-02T00:23:41.504Z,102021.00
2018-09-02T00:26:10.376Z,102023.00
2018-09-02T00:28:39.251Z,102025.00
2018-09-02T00:31:08.192Z,102027.00
2018-09-02T00:33:37.036Z,102022.00
2018-09-02T00:36:05.976Z,102023.00
2018-09-02T00:38:34.811Z,102018.00
2018-09-02T00:41:03.655Z,102014.00
2018-09-02T00:43:32.497Z,102012.00
2018-09-02T00:46:01.294Z,102013.00
2018-09-02T00:48:30.131Z,102013.00
2018-09-02T00:50:58.984Z,102015.00
2018-09-02T00:53:27.853Z,102016.00
2018-09-02T00:55:56.739Z,102009.00
2018-09-02T00:58:25.612Z,102004.00
2018-09-02T01:00:54.450Z,102017.00
2018-09-02T01:03:23.328Z,102014.00
2018-09-02T01:05:52.567Z,102010.00
2018-09-02T01:08:21.391Z,102010.00
2018-09-02T01:10:50.389Z,102016.00
2018-09-02T01:13:19.544Z,102012.00
2018-09-02T01:15:48.679Z,102015.00
2018-09-02T01:18:17.868Z,102006.00
2018-09-02T01:20:46.718Z,102002.00
2018-09-02T01:23:15.600Z,102002.00
2018-09-02T01:25:44.473Z,101994.00
2018-09-02T01:28:13.331Z,101997.00
2018-09-02T01:30:42.200Z,102002.00
2018-09-02T01:33:11.086Z,102000.00
2018-09-02T01:35:39.952Z,101994.00
2018-09-02T01:38:08.765Z,101990.00
2018-09-02T01:40:37.631Z,101994.00
2018-09-02T01:43:06.493Z,101989.00
2018-09-02T01:45:35.379Z,102007.00
2018-09-02T01:48:04.351Z,102001.00
2018-09-02T01:50:33.186Z,102005.00
2018-09-02T01:53:02.039Z,101997.00
2018-09-02T01:55:30.875Z,101995.00
2018-09-02T01:57:59.704Z,102001.00
2018-09-02T02:00:28.545Z,101997.00
2018-09-02T02:02:57.366Z,102009.00
2018-09-02T02:05:26.221Z,102010.00
2018-09-02T02:07:55.086Z,102003.00
2018-09-02T02:10:23.932Z,102000.00
2018-09-02T02:12:52.730Z,101996.00
2018-09-02T02:15:21.551Z,101998.00
2018-09-02T02:17:50.380Z,101996.00
2018-09-02T02:20:19.244Z,101994.00
2018-09-02T02:22:48.110Z,101992.00
2018-09-02T02:25:16.994Z,101993.00
2018-09-02T02:27:45.896Z,101995.00
2018-09-02T02:30:14.777Z,102001.00
2018-09-02T02:32:43.637Z,101995.00
2018-09-02T02:35:12.513Z,101991.00
2018-09-02T02:37:41.540Z,101995.00
2018-09-02T02:40:10.448Z,101994.00
2018-09-02T02:42:39.329Z,101987.00
2018-09-02T02:45:08.186Z,101992.00
2018-09-02T02:47:37.405Z,101994.00
2018-09-02T02:50:06.443Z,101991.00
2018-09-02T02:52:40.523Z,101987.00
2018-09-02T02:55:09.833Z,101991.00
2018-09-02T02:57:38.697Z,101985.00
2018-09-02T03:00:07.809Z,101994.00
2018-09-02T03:02:36.675Z,101995.00
2018-09-02T03:05:05.624Z,102000.00
2018-09-02T03:07:34.523Z,101983.00
2018-09-02T03:10:03.421Z,101980.00
2018-09-02T03:12:32.260Z,101980.00
2018-09-02T03:15:01.149Z,101984.00
2018-09-02T03:17:30.100Z,101982.00
2018-09-02T03:19:58.918Z,101980.00
2018-09-02T03:22:27.785Z,101979.00
2018-09-02T03:24:56.636Z,101976.00
2018-09-02T03:27:25.545Z,101976.00
2018-09-02T03:29:54.377Z,101981.00
2018-09-02T03:32:23.232Z,101974.00
2018-09-02T03:34:52.092Z,101983.00
2018-09-02T03:37:21.000Z,101974.00
2018-09-02T03:39:49.856Z,101975.00
2018-09-02T03:42:18.801Z,101982.00
2018-09-02T03:44:47.932Z,101979.00
2018-09-02T03:47:16.830Z,101980.00
2018-09-02T03:49:45.719Z,101969.00
2018-09-02T03:52:14.759Z,101969.00
2018-09-02T03:54:43.645Z,101968.00
2018-09-02T03:57:12.479Z,101975.00
2018-09-02T03:59:41.363Z,101973.00
2018-09-02T04:02:10.212Z,101962.00
2018-09-02T04:04:39.006Z,101967.00
2018-09-02T04:07:07.900Z,101965.00
2018-09-02T04:09:36.776Z,101966.00
2018-09-02T04:12:05.663Z,101964.00
2018-09-02T04:14:34.490Z,101961.00
2018-09-02T04:17:03.382Z,101969.00
2018-09-02T04:19:32.235Z,101967.00
2018-09-02T04:22:01.102Z,101972.00
2018-09-02T04:24:29.968Z,101969.00
2018-09-02T04:26:58.867Z,101974.00
2018-09-02T04:29:27.770Z,101979.00
2018-09-02T04:31:56.636Z,101976.00
2018-09-02T04:34:25.520Z,101982.00
2018-09-02T04:36:54.423Z,101984.00
2018-09-02T04:39:23.385Z,101979.00
2018-09-02T04:41:52.250Z,101987.00
2018-09-02T04:44:21.080Z,101991.00
2018-09-02T04:46:49.969Z,101982.00
2018-09-02T04:49:18.820Z,101980.00
2018-09-02T04:51:47.671Z,101983.00
2018-09-02T04:54:16.613Z,101978.00
2018-09-02T04:56:45.354Z,101975.00
2018-09-02T04:59:14.217Z,101975.00
2018-09-02T05:01:43.076Z,101974.00
2018-09-02T05:04:11.937Z,101976.00
2018-09-02T05:06:42.286Z,101990.00
2018-09-02T05:09:11.166Z,101978.00
2018-09-02T05:11:40.016Z,101975.00
2018-09-02T05:14:08.953Z,101972.00
2018-09-02T05:16:37.840Z,101982.00
2018-09-02T05:19:06.663Z,101974.00
2018-09-02T05:21:35.484Z,101983.00
2018-09-02T05:24:04.360Z,101976.00
2018-09-02T05:26:33.191Z,101972.00
2018-09-02T05:29:02.042Z,101981.00
2018-09-02T05:31:30.917Z,101976.00
2018-09-02T05:33:59.777Z,101976.00
2018-09-02T05:36:28.629Z,101971.00
2018-09-02T05:38:57.468Z,101973.00
2018-09-02T05:41:26.286Z,101966.00
2018-09-02T05:43:55.219Z,101975.00
2018-09-02T05:46:24.036Z,101971.00
2018-09-02T05:48:52.860Z,101974.00
2018-09-02T05:51:21.723Z,101968.00
2018-09-02T05:53:50.568Z,101964.00
2018-09-02T05:56:19.404Z,101969.00
2018-09-02T05:58:48.257Z,101962.00
2018-09-02T06:01:17.158Z,101965.00
2018-09-02T06:03:46.033Z,101962.00
2018-09-02T06:06:14.888Z,101963.00
2018-09-02T06:08:43.751Z,101960.00
2018-09-02T06:11:12.609Z,101959.00
2018-09-02T06:13:41.439Z,101956.00
2018-09-02T06:16:10.544Z,101958.00
2018-09-02T06:18:39.577Z,101964.00
2018-09-02T06:21:08.418Z,101961.00
2018-09-02T06:23:37.393Z,101959.00
2018-09-02T06:26:06.252Z,101961.00
2018-09-02T06:28:35.464Z,101954.00
2018-09-02T06:31:04.361Z,101962.00
2018-09-02T06:33:33.303Z,101956.00
2018-09-02T06:36:02.164Z,101962.00
2018-09-02T06:38:31.040Z,101950.00
2018-09-02T06:41:00.092Z,101955.00
2018-09-02T06:43:28.933Z,101943.00
2018-09-02T06:45:57.743Z,101940.00
2018-09-02T06:48:26.622Z,101939.00
2018-09-02T06:50:55.512Z,101942.00
2018-09-02T06:53:24.463Z,101944.00
2018-09-02T06:55:53.318Z,101939.00
2018-09-02T06:58:22.119Z,101936.00
2018-09-02T07:00:50.968Z,101945.00
2018-09-02T07:03:19.857Z,101951.00
2018-09-02T07:05:48.732Z,101947.00
2018-09-02T07:08:17.592Z,101951.00
2018-09-02T07:10:46.413Z,101939.00
2018-09-02T07:13:15.296Z,101945.00
2018-09-02T07:15:44.108Z,101950.00
2018-09-02T07:18:12.956Z,101954.00
2018-09-02T07:20:41.874Z,101951.00
2018-09-02T07:23:10.719Z,101952.00
2018-09-02T07:25:39.673Z,101956.00
2018-09-02T07:28:08.625Z,101950.00
2018-09-02T07:30:37.589Z,101944.00
2018-09-02T07:33:06.699Z,101948.00
2018-09-02T07:35:35.548Z,101940.00
2018-09-02T07:38:04.400Z,101952.00
2018-09-02T07:40:33.757Z,101955.00
2018-09-02T07:43:02.623Z,101954.00
2018-09-02T07:45:31.588Z,101953.00
2018-09-02T07:48:00.461Z,101957.00
2018-09-02T07:50:29.287Z,101959.00
2018-09-02T07:52:58.189Z,101953.00
2018-09-02T07:55:27.161Z,101953.00
2018-09-02T07:57:56.052Z,101958.00
2018-09-02T08:00:25.260Z,101956.00
2018-09-02T08:02:54.299Z,101951.00
2018-09-02T08:05:23.136Z,101956.00
2018-09-02T08:07:51.996Z,101951.00
2018-09-02T08:10:20.964Z,101949.00
2018-09-02T08:12:50.127Z,101949.00
2018-09-02T08:15:18.723Z,101946.00
2018-09-02T08:17:47.530Z,101949.00
2018-09-02T08:20:16.475Z,101951.00
2018-09-02T08:22:45.389Z,101956.00
2018-09-02T08:25:14.232Z,101955.00
2018-09-02T08:27:43.193Z,101952.00
2018-09-02T08:30:12.077Z,101957.00
2018-09-02T08:32:40.905Z,101952.00
2018-09-02T08:35:09.715Z,101944.00
2018-09-02T08:37:38.612Z,101947.00
2018-09-02T08:40:07.658Z,101947.00
2018-09-02T08:42:36.667Z,101960.00
2018-09-02T08:45:07.001Z,101948.00
2018-09-02T08:47:37.181Z,101949.00
2018-09-02T08:50:06.645Z,101950.00
2018-09-02T08:52:35.527Z,101955.00
2018-09-02T08:55:04.440Z,101952.00
2018-09-02T08:57:33.287Z,101949.00
2018-09-02T09:00:02.235Z,101944.00
2018-09-02T09:02:31.450Z,101944.00
2018-09-02T09:05:00.578Z,101948.00
2018-09-02T09:07:31.002Z,101954.00
2018-09-02T09:09:59.927Z,101947.00
2018-09-02T09:12:28.810Z,101950.00
2018-09-02T09:14:57.655Z,101941.00
2018-09-02T09:17:26.452Z,101943.00
2018-09-02T09:19:55.327Z,101938.00
2018-09-02T09:22:24.237Z,101940.00
2018-09-02T09:24:53.130Z,101945.00
2018-09-02T09:27:21.918Z,101946.00
2018-09-02T09:29:50.768Z,101937.00
2018-09-02T09:32:19.680Z,101939.00
2018-09-02T09:34:48.420Z,101941.00
2018-09-02T09:37:17.278Z,101941.00
2018-09-02T09:39:46.115Z,101945.00
2018-09-02T09:42:14.999Z,101942.00
2018-09-02T09:44:43.853Z,101935.00
2018-09-02T09:47:12.825Z,101934.00
2018-09-02T09:49:41.692Z,101921.00
2018-09-02T09:52:10.588Z,101937.00
2018-09-02T09:54:39.465Z,101940.00
2018-09-02T09:57:08.509Z,101944.00
2018-09-02T09:59:37.308Z,101938.00
2018-09-02T10:02:07.563Z,101929.00
2018-09-02T10:04:36.599Z,101932.00
2018-09-02T10:07:05.450Z,101921.00
2018-09-02T10:09:34.267Z,101922.00
2018-09-02T10:12:03.157Z,101912.00
2018-09-02T10:14:31.978Z,101909.00
2018-09-02T10:17:00.877Z,101907.00
2018-09-02T10:19:29.869Z,101908.00
2018-09-02T10:21:58.708Z,101906.00
2018-09-02T10:24:28.151Z,101900.00
2018-09-02T10:26:57.000Z,101895.00
2018-09-02T10:29:25.984Z,101895.00
2018-09-02T10:31:54.921Z,101893.00
2018-09-02T10:34:24.589Z,101888.00
2018-09-02T10:36:53.538Z,101876.00
2018-09-02T10:39:22.387Z,101875.00
2018-09-02T10:41:51.409Z,101869.00
2018-09-02T10:44:20.269Z,101863.00
2018-09-02T10:46:49.122Z,101857.00
2018-09-02T10:49:18.025Z,101845.00
2018-09-02T10:51:46.879Z,101837.00
2018-09-02T10:54:15.797Z,101841.00
2018-09-02T10:56:44.600Z,101838.00
2018-09-02T10:59:13.407Z,101826.00
2018-09-02T11:01:42.235Z,101829.00
2018-09-02T11:04:11.137Z,101822.00
2018-09-02T11:06:39.960Z,101818.00
2018-09-02T11:09:11.067Z,101818.00
2018-09-02T11:11:40.116Z,101810.00
2018-09-02T11:14:09.685Z,101805.00
2018-09-02T11:16:38.792Z,101805.00
2018-09-02T11:19:07.864Z,101801.00
2018-09-02T11:21:36.931Z,101797.00
2018-09-02T11:24:05.907Z,101787.00
2018-09-02T11:26:34.741Z,101779.00
2018-09-02T11:29:03.639Z,101785.00
2018-09-02T11:31:32.479Z,101780.00
2018-09-02T11:34:01.373Z,101767.00
2018-09-02T11:36:30.241Z,101772.00
2018-09-02T11:38:59.092Z,101763.00
2018-09-02T11:41:27.960Z,101762.00
2018-09-02T11:43:56.837Z,101758.00
2018-09-02T11:46:25.641Z,101757.00
2018-09-02T11:48:54.454Z,101745.00
2018-09-02T11:51:23.313Z,101755.00
2018-09-02T11:53:52.131Z,101752.00
2018-09-02T11:56:21.029Z,101747.00
2018-09-02T11:58:49.897Z,101742.00
2018-09-02T12:01:18.792Z,101749.00
2018-09-02T12:03:47.649Z,101747.00
2018-09-02T12:06:16.476Z,101749.00
2018-09-02T12:08:45.336Z,101755.00
2018-09-02T12:11:14.196Z,101749.00
2018-09-02T12:13:43.039Z,101746.00
2018-09-02T12:16:11.932Z,101744.00
2018-09-02T12:18:40.768Z,101744.00
2018-09-02T12:21:09.656Z,101745.00
2018-09-02T12:23:38.533Z,101745.00
2018-09-02T12:26:07.443Z,101750.00
2018-09-02T12:28:36.287Z,101729.00
2018-09-02T12:31:05.226Z,101732.00
2018-09-02T12:33:34.118Z,101727.00
2018-09-02T12:36:07.964Z,101725.00
2018-09-02T12:38:37.391Z,101725.00
2018-09-02T12:41:06.355Z,101726.00
2018-09-02T12:43:35.202Z,101725.00
2018-09-02T12:46:04.056Z,101725.00
2018-09-02T12:48:32.921Z,101725.00
2018-09-02T12:51:01.779Z,101726.00
2018-09-02T12:53:30.615Z,101717.00
2018-09-02T12:55:59.449Z,101723.00
2018-09-02T12:58:28.308Z,101723.00
2018-09-02T13:00:57.162Z,101723.00
2018-09-02T13:03:26.012Z,101728.00
2018-09-02T13:05:54.932Z,101726.00
2018-09-02T13:08:25.139Z,101728.00
2018-09-02T13:10:54.158Z,101726.00
2018-09-02T13:13:22.995Z,101730.00
2018-09-02T13:15:51.830Z,101728.00
2018-09-02T13:18:20.664Z,101731.00
2018-09-02T13:20:49.575Z,101726.00
2018-09-02T13:23:18.414Z,101728.00
2018-09-02T13:25:47.288Z,101721.00
2018-09-02T13:28:16.193Z,101725.00
2018-09-02T13:30:45.065Z,101723.00
2018-09-02T13:33:13.915Z,101724.00
2018-09-02T13:35:42.844Z,101727.00
2018-09-02T13:38:11.793Z,101715.00
2018-09-02T13:40:40.600Z,101719.00
2018-09-02T13:43:09.440Z,101710.00
2018-09-02T13:45:38.308Z,101713.00
2018-09-02T13:48:07.227Z,101707.00
2018-09-02T13:50:36.062Z,101702.00
2018-09-02T13:53:04.887Z,101707.00
2018-09-02T13:55:33.711Z,101705.00
2018-09-02T13:58:02.565Z,101702.00
2018-09-02T14:00:31.500Z,101698.00
2018-09-02T14:03:00.325Z,101691.00
2018-09-02T14:05:29.175Z,101692.00
2018-09-02T14:07:58.413Z,101692.00
2018-09-02T14:10:27.193Z,101690.00
2018-09-02T14:12:56.015Z,101688.00
2018-09-02T14:15:25.744Z,101686.00
2018-09-02T14:17:54.550Z,101678.00
2018-09-02T14:20:23.339Z,101674.00
2018-09-02T14:22:52.147Z,101677.00
2018-09-02T14:25:20.972Z,101673.00
2018-09-02T14:27:49.810Z,101668.00
2018-09-02T14:30:18.660Z,101669.00
2018-09-02T14:32:47.508Z,101658.00
2018-09-02T14:35:16.393Z,101662.00
2018-09-02T14:37:45.244Z,101660.00
2018-09-02T14:40:14.071Z,101656.00
2018-09-02T14:42:42.887Z,101652.00
2018-09-02T14:45:11.745Z,101653.00
2018-09-02T14:47:40.578Z,101650.00
2018-09-02T14:50:09.452Z,101653.00
2018-09-02T14:52:38.307Z,101646.00
2018-09-02T14:55:07.234Z,101647.00
2018-09-02T14:57:36.088Z,101646.00
2018-09-02T15:00:05.266Z,101648.00
2018-09-02T15:02:34.157Z,101642.00
2018-09-02T15:05:03.027Z,101641.00
2018-09-02T15:07:31.880Z,101639.00
2018-09-02T15:10:00.683Z,101637.00
2018-09-02T15:12:29.539Z,101634.00
2018-09-02T15:14:58.384Z,101643.00
2018-09-02T15:17:27.175Z,101642.00
2018-09-02T15:19:56.021Z,101643.00
2018-09-02T15:22:24.860Z,101636.00
2018-09-02T15:24:53.712Z,101632.00
2018-09-02T15:27:22.559Z,101627.00
2018-09-02T15:29:51.473Z,101626.00
2018-09-02T15:32:20.278Z,101619.00
2018-09-02T15:34:49.444Z,101631.00
2018-09-02T15:37:18.258Z,101620.00
2018-09-02T15:39:47.140Z,101622.00
2018-09-02T15:42:15.983Z,101623.00
2018-09-02T15:44:44.840Z,101619.00
2018-09-02T15:47:13.719Z,101616.00
2018-09-02T15:49:42.581Z,101626.00
2018-09-02T15:52:11.440Z,101621.00
2018-09-02T15:54:40.272Z,101623.00
2018-09-02T15:57:09.155Z,101624.00
2018-09-02T15:59:37.996Z,101623.00
2018-09-02T16:02:06.852Z,101613.00
2018-09-02T16:04:35.696Z,101612.00
2018-09-02T16:07:04.548Z,101607.00
2018-09-02T16:09:34.037Z,101609.00
2018-09-02T16:12:02.879Z,101609.00
2018-09-02T16:14:31.756Z,101603.00
2018-09-02T16:17:00.652Z,101601.00
2018-09-02T16:19:29.603Z,101599.00
2018-09-02T16:21:58.478Z,101598.00
2018-09-02T16:24:27.402Z,101601.00
2018-09-02T16:26:56.252Z,101601.00
2018-09-02T16:29:25.145Z,101599.00
2018-09-02T16:31:53.977Z,101605.00
2018-09-02T16:34:22.848Z,101605.00
2018-09-02T16:36:51.683Z,101606.00
2018-09-02T16:39:20.512Z,101603.00
2018-09-02T16:41:49.397Z,101597.00
2018-09-02T16:44:18.212Z,101599.00
2018-09-02T16:46:47.049Z,101600.00
2018-09-02T16:49:15.874Z,101604.00
2018-09-02T16:51:44.692Z,101601.00
2018-09-02T16:54:13.504Z,101604.00
2018-09-02T16:56:42.394Z,101600.00
2018-09-02T16:59:11.260Z,101601.00
2018-09-02T17:01:40.128Z,101598.00
2018-09-02T17:04:10.875Z,101603.00
2018-09-02T17:06:39.951Z,101597.00
2018-09-02T17:09:10.930Z,101595.00
2018-09-02T17:11:40.539Z,101590.00
2018-09-02T17:14:10.068Z,101601.00
2018-09-02T17:16:38.975Z,101599.00
2018-09-02T17:19:11.080Z,101596.00
2018-09-02T17:21:40.008Z,101592.00
2018-09-02T17:24:09.006Z,101593.00
2018-09-02T17:26:37.891Z,101588.00
2018-09-02T17:29:07.025Z,101585.00
2018-09-02T17:31:37.100Z,101587.00
2018-09-02T17:34:05.948Z,101596.00
2018-09-02T17:36:34.812Z,101589.00
2018-09-02T17:39:04.780Z,101587.00
2018-09-02T17:41:33.602Z,101589.00
2018-09-02T17:44:02.493Z,101584.00
2018-09-02T17:46:31.353Z,101591.00
2018-09-02T17:49:00.305Z,101586.00
2018-09-02T17:51:29.426Z,101587.00
2018-09-02T17:53:58.477Z,101577.00
2018-09-02T17:56:27.576Z,101586.00
2018-09-02T17:58:56.379Z,101584.00
2018-09-02T18:01:25.179Z,101583.00
2018-09-02T18:03:54.030Z,101592.00
2018-09-02T18:06:22.880Z,101588.00
2018-09-02T18:08:51.747Z,101588.00
2018-09-02T18:11:20.588Z,101592.00
2018-09-02T18:13:49.423Z,101592.00
2018-09-02T18:16:18.283Z,101595.00
2018-09-02T18:18:47.116Z,101589.00
2018-09-02T18:21:15.907Z,101600.00
2018-09-02T18:23:44.756Z,101596.00
2018-09-02T18:26:13.623Z,101603.00
2018-09-02T18:28:44.470Z,101603.00
2018-09-02T18:31:13.369Z,101601.00
2018-09-02T18:33:42.175Z,101593.00
2018-09-02T18:36:11.288Z,101600.00
2018-09-02T18:38:40.093Z,101600.00
2018-09-02T18:41:09.014Z,101595.00
2018-09-02T18:43:38.005Z,101599.00
2018-09-02T18:46:06.812Z,101602.00
2018-09-02T18:48:35.668Z,101601.00
2018-09-02T18:51:04.482Z,101599.00
2018-09-02T18:53:33.335Z,101604.00
2018-09-02T18:56:02.221Z,101606.00
2018-09-02T18:58:31.058Z,101602.00
2018-09-02T19:00:59.956Z,101596.00
2018-09-02T19:03:28.758Z,101602.00
2018-09-02T19:05:57.596Z,101599.00
2018-09-02T19:08:26.452Z,101601.00
2018-09-02T19:10:55.241Z,101593.00
2018-09-02T19:13:24.049Z,101595.00
2018-09-02T19:15:52.867Z,101591.00
2018-09-02T19:18:22.129Z,101593.00
2018-09-02T19:20:50.952Z,101592.00
2018-09-02T19:23:19.803Z,101591.00
2018-09-02T19:25:48.685Z,101595.00
2018-09-02T19:28:17.558Z,101590.00
2018-09-02T19:30:47.404Z,101594.00
2018-09-02T19:33:16.263Z,101588.00
2018-09-02T19:35:45.133Z,101583.00
2018-09-02T19:38:14.028Z,101578.00
2018-09-02T19:40:42.921Z,101567.00
2018-09-02T19:43:11.743Z,101569.00
2018-09-02T19:45:40.602Z,101562.00
2018-09-02T19:48:09.411Z,101551.00
2018-09-02T19:50:38.195Z,101549.00
2018-09-02T19:53:07.091Z,101543.00
2018-09-02T19:55:35.961Z,101539.00
2018-09-02T19:58:04.803Z,101546.00
2018-09-02T20:00:33.603Z,101550.00
2018-09-02T20:03:03.436Z,101545.00
2018-09-02T20:05:32.316Z,101550.00
2018-09-02T20:08:01.167Z,101544.00
2018-09-02T20:10:30.031Z,101541.00
2018-09-02T20:12:58.876Z,101540.00
2018-09-02T20:15:27.707Z,101531.00
2018-09-02T20:17:56.584Z,101532.00
2018-09-02T20:20:25.432Z,101526.00
2018-09-02T20:22:54.407Z,101525.00
2018-09-02T20:25:23.249Z,101520.00
2018-09-02T20:27:52.101Z,101524.00
2018-09-02T20:30:21.013Z,101521.00
2018-09-02T20:32:49.878Z,101524.00
2018-09-02T20:35:18.773Z,101520.00
2018-09-02T20:37:47.618Z,101525.00
2018-09-02T20:40:16.533Z,101522.00
2018-09-02T20:42:45.356Z,101524.00
2018-09-02T20:45:14.301Z,101519.00
2018-09-02T20:47:43.132Z,101517.00
2018-09-02T20:50:12.026Z,101520.00
2018-09-02T20:52:41.028Z,101521.00
2018-09-02T20:55:09.880Z,101515.00
2018-09-02T20:57:38.715Z,101522.00
2018-09-02T21:00:07.781Z,101520.00
2018-09-02T21:02:36.707Z,101523.00
2018-09-02T21:05:05.573Z,101526.00
2018-09-02T21:07:34.420Z,101514.00
2018-09-02T21:10:03.296Z,101513.00
2018-09-02T21:12:32.185Z,101513.00
2018-09-02T21:15:01.008Z,101513.00
2018-09-02T21:17:29.863Z,101512.00
2018-09-02T21:19:58.730Z,101515.00
2018-09-02T21:22:27.547Z,101522.00
2018-09-02T21:24:56.392Z,101511.00
2018-09-02T21:27:25.264Z,101509.00
2018-09-02T21:29:54.144Z,101509.00
2018-09-02T21:32:22.961Z,101511.00
2018-09-02T21:34:51.799Z,101507.00
2018-09-02T21:37:20.666Z,101511.00
2018-09-02T21:39:49.537Z,101505.00
2018-09-02T21:42:18.409Z,101501.00
2018-09-02T21:44:47.288Z,101509.00
2018-09-02T21:47:16.120Z,101507.00
2018-09-02T21:49:45.264Z,101506.00
2018-09-02T21:52:14.116Z,101504.00
2018-09-02T21:54:43.181Z,101500.00
2018-09-02T21:57:11.995Z,101494.00
2018-09-02T21:59:40.790Z,101494.00
2018-09-02T22:02:09.622Z,101486.00
2018-09-02T22:04:38.422Z,101482.00
2018-09-02T22:07:07.280Z,101477.00
2018-09-02T22:09:36.088Z,101480.00
2018-09-02T22:12:05.048Z,101474.00
2018-09-02T22:14:33.858Z,101465.00
2018-09-02T22:17:02.907Z,101462.00
2018-09-02T22:19:31.743Z,101466.00
2018-09-02T22:22:00.604Z,101464.00
2018-09-02T22:24:29.493Z,101474.00
2018-09-02T22:26:58.388Z,101466.00
2018-09-02T22:29:27.285Z,101458.00
2018-09-02T22:31:56.182Z,101452.00
2018-09-02T22:34:24.984Z,101448.00
2018-09-02T22:36:53.841Z,101450.00
2018-09-02T22:39:22.756Z,101451.00
2018-09-02T22:41:51.633Z,101444.00
2018-09-02T22:44:20.525Z,101448.00
2018-09-02T22:46:49.372Z,101449.00
2018-09-02T22:49:18.243Z,101452.00
2018-09-02T22:51:47.080Z,101446.00
2018-09-02T22:54:15.875Z,101451.00
2018-09-02T22:56:44.752Z,101448.00
2018-09-02T22:59:13.641Z,101452.00
2018-09-02T23:01:42.541Z,101444.00
2018-09-02T23:04:11.389Z,101443.00
2018-09-02T23:06:40.210Z,101444.00
2018-09-02T23:09:09.411Z,101441.00
2018-09-02T23:11:38.272Z,101443.00
2018-09-02T23:14:07.114Z,101443.00
2018-09-02T23:16:35.947Z,101433.00
2018-09-02T23:19:04.839Z,101433.00
2018-09-02T23:21:34.379Z,101428.00
2018-09-02T23:24:03.269Z,101428.00
2018-09-02T23:26:32.120Z,101420.00
2018-09-02T23:29:00.922Z,101421.00
2018-09-02T23:31:29.793Z,101426.00
2018-09-02T23:33:58.599Z,101415.00
2018-09-02T23:36:27.433Z,101424.00
2018-09-02T23:38:56.302Z,101422.00
2018-09-02T23:41:25.099Z,101425.00
2018-09-02T23:43:54.008Z,101412.00
2018-09-02T23:46:22.842Z,101411.00
2018-09-02T23:48:51.680Z,101407.00
2018-09-02T23:51:20.505Z,101409.00
2018-09-02T23:53:49.331Z,101408.00
2018-09-02T23:56:18.194Z,101413.00
2018-09-02T23:58:47.028Z,101407.00
